Главная страница
METAR-TAF:

METAR-TAF

Аэропорты :

Закаталы, Азербайджан

Парзиван

широта: 41-33-44N, долгота: 46-40-02E, высота над уровнем моря: 330 м

Текущие метеонаблюдения

Эта сводка был подготовлена 1 час и 4 минут назад, в 16:00 UTC
Ветер 6 Узел от восточный
Температура 24°C
Влажность 34%
Давление 1019 hPa
Видимость 10 км и более

METAR: UBBY 191600Z 08006KT 9999 NSC 24/07 Q1019 R33/////// NOSIG RMK MT OP

Время: 21:04 (17:04 UTC)

Прогноз

Эта сводка был подготовлена 3 часа и 4 минут назад, в 14:00 UTC
Прогноз действительный с 19-го 15 UTC до 19-го 24 UTC
Ветер 4 Узел переменных направлений
Видимость 10 км и более
небольшая облачность на высоте 10000 фута

TAF: UBBY 191400Z 1915/1924 VRB04KT 9999 FEW100

Метеонаблюдения и прогнозы для более 4000 аэропортов (сводки METAR и TAF).

Имеющиеся станции представлены на карте желтыми и красными точками.

Чтобы увидеть название станции, наведите на нее мышь.

Затем щелкните, чтобы увидеть метеонаблюдения и метеопрогнозы.

Управление картой: чтобы увеличить масштаб, щелкните зеленые кнопки с черным крестиком; чтобы уменьшить масштаб, щелкните зеленую кнопку с тире; для просмотра соседних карт щелкайте зеленые стрелки.


METAR-TAF: